createdAt,value
2023-01-09T00:01:12.333Z,99905.69
2023-01-09T00:03:39.733Z,99910.41
2023-01-09T00:06:07.411Z,99905.66
2023-01-09T00:08:34.712Z,99910.66
2023-01-09T00:11:02.104Z,99907.97
2023-01-09T00:13:29.446Z,99895.53
2023-01-09T00:15:56.861Z,99888.97
2023-01-09T00:18:24.218Z,99875.91
2023-01-09T00:20:51.886Z,99864.25
2023-01-09T00:23:19.171Z,99852.91
2023-01-09T00:25:46.516Z,99839.84
2023-01-09T00:28:13.806Z,99838.91
2023-01-09T00:30:41.202Z,99840.56
2023-01-09T00:33:08.540Z,99832.75
2023-01-09T00:35:35.972Z,99830.50
2023-01-09T00:38:03.615Z,99818.41
2023-01-09T00:40:31.016Z,99804.91
2023-01-09T00:42:58.590Z,99800.84
2023-01-09T00:45:29.293Z,99797.41
2023-01-09T00:48:09.094Z,99777.25
2023-01-09T00:50:37.732Z,99776.59
2023-01-09T00:53:13.391Z,99785.84
2023-01-09T00:55:41.439Z,99789.41
2023-01-09T00:58:09.498Z,99778.28
2023-01-09T01:00:36.963Z,99781.19
2023-01-09T01:03:04.406Z,99795.03
2023-01-09T01:05:50.333Z,99794.81
2023-01-09T01:08:20.074Z,99791.44
2023-01-09T01:10:48.715Z,99788.97
2023-01-09T01:13:16.944Z,99785.63
2023-01-09T01:15:46.025Z,99788.97
2023-01-09T01:18:14.721Z,99785.38
2023-01-09T01:20:44.351Z,99783.41
2023-01-09T01:23:12.037Z,99788.41
2023-01-09T01:25:41.819Z,99779.47
2023-01-09T01:28:10.600Z,99785.47
2023-01-09T01:30:40.660Z,99780.97
2023-01-09T01:33:09.453Z,99785.97
2023-01-09T01:35:37.667Z,99777.03
2023-01-09T01:38:05.131Z,99774.19
2023-01-09T01:40:32.918Z,99771.69
2023-01-09T01:43:00.374Z,99770.31
2023-01-09T01:45:29.969Z,99769.16
2023-01-09T01:48:03.311Z,99774.94
2023-01-09T01:50:56.466Z,99767.25
2023-01-09T01:53:32.836Z,99770.53
2023-01-09T01:56:09.858Z,99774.72
2023-01-09T01:58:55.257Z,99774.91
2023-01-09T02:01:24.618Z,99774.34
2023-01-09T02:03:55.528Z,99772.44
2023-01-09T02:06:23.214Z,99769.03
2023-01-09T02:08:51.021Z,99772.53
2023-01-09T02:11:20.335Z,99779.91
2023-01-09T02:13:48.669Z,99782.13
2023-01-09T02:16:28.209Z,99779.94
2023-01-09T02:19:20.006Z,99777.59
2023-01-09T02:22:12.831Z,99775.06
2023-01-09T02:25:01.946Z,99773.81
2023-01-09T02:27:32.227Z,99769.06
2023-01-09T02:30:23.410Z,99753.09
2023-01-09T02:32:53.840Z,99763.03
2023-01-09T02:35:29.826Z,99765.72
2023-01-09T02:38:03.086Z,99763.34
2023-01-09T02:40:36.440Z,99759.41
2023-01-09T02:43:05.528Z,99755.91
2023-01-09T02:45:32.938Z,99746.03
2023-01-09T02:48:00.364Z,99734.84
2023-01-09T02:50:35.748Z,99736.78
2023-01-09T02:53:44.424Z,99735.19
2023-01-09T02:56:24.051Z,99736.28
2023-01-09T02:59:00.677Z,99730.28
2023-01-09T03:02:00.831Z,99734.72
2023-01-09T03:04:53.655Z,99748.28
2023-01-09T03:07:34.649Z,99745.53
2023-01-09T03:10:25.391Z,99744.84
2023-01-09T03:12:54.845Z,99751.94
2023-01-09T03:15:28.952Z,99752.09
2023-01-09T03:17:57.382Z,99739.06
2023-01-09T03:20:29.741Z,99745.59
2023-01-09T03:23:00.028Z,99749.88
2023-01-09T03:25:29.257Z,99743.22
2023-01-09T03:27:59.838Z,99744.47
2023-01-09T03:30:28.906Z,99738.94
2023-01-09T03:32:57.301Z,99742.50
2023-01-09T03:35:25.507Z,99740.91
2023-01-09T03:37:52.933Z,99737.72
2023-01-09T03:40:21.036Z,99751.47
2023-01-09T03:42:48.463Z,99737.91
2023-01-09T03:45:15.886Z,99748.44
2023-01-09T03:47:43.306Z,99731.66
2023-01-09T03:50:10.917Z,99723.06
2023-01-09T03:52:38.301Z,99721.44
2023-01-09T03:55:05.925Z,99711.78
2023-01-09T03:57:33.166Z,99707.00
2023-01-09T04:00:00.514Z,99704.94
2023-01-09T04:02:27.968Z,99710.69
2023-01-09T04:04:55.292Z,99708.28
2023-01-09T04:07:22.689Z,99700.34
2023-01-09T04:09:50.038Z,99706.84
2023-01-09T04:12:17.428Z,99708.78
2023-01-09T04:14:44.906Z,99702.69
2023-01-09T04:17:12.305Z,99704.88
2023-01-09T04:19:39.687Z,99705.53
2023-01-09T04:22:07.295Z,99704.28
2023-01-09T04:24:34.663Z,99689.69
2023-01-09T04:27:02.023Z,99691.63
2023-01-09T04:29:29.338Z,99677.28
2023-01-09T04:31:56.694Z,99670.88
2023-01-09T04:34:25.681Z,99672.53
2023-01-09T04:36:53.995Z,99669.94
2023-01-09T04:39:22.192Z,99663.59
2023-01-09T04:41:49.638Z,99672.84
2023-01-09T04:44:19.189Z,99676.88
2023-01-09T04:46:46.745Z,99673.97
2023-01-09T04:49:14.573Z,99673.38
2023-01-09T04:51:41.964Z,99669.34
2023-01-09T04:54:09.651Z,99673.78
2023-01-09T04:56:38.575Z,99667.56
2023-01-09T04:59:07.245Z,99669.84
2023-01-09T05:01:34.938Z,99666.78
2023-01-09T05:04:02.724Z,99668.75
2023-01-09T05:06:30.576Z,99670.88
2023-01-09T05:08:58.666Z,99653.97
2023-01-09T05:11:26.585Z,99660.63
2023-01-09T05:13:54.291Z,99667.72
2023-01-09T05:16:21.869Z,99666.72
2023-01-09T05:18:49.327Z,99671.75
2023-01-09T05:21:16.669Z,99671.34
2023-01-09T05:23:44.037Z,99673.13
2023-01-09T05:26:11.346Z,99676.75
2023-01-09T05:28:39.145Z,99679.06
2023-01-09T05:31:06.452Z,99681.75
2023-01-09T05:33:33.761Z,99686.16
2023-01-09T05:36:01.087Z,99688.47
2023-01-09T05:38:28.487Z,99692.47
2023-01-09T05:40:55.837Z,99686.53
2023-01-09T05:43:23.190Z,99687.66
2023-01-09T05:45:50.610Z,99689.09
2023-01-09T05:48:18.050Z,99687.63
2023-01-09T05:50:45.723Z,99683.09
2023-01-09T05:53:13.112Z,99684.16
2023-01-09T05:55:40.425Z,99683.22
2023-01-09T05:58:07.763Z,99687.00
2023-01-09T06:00:35.786Z,99694.47
2023-01-09T06:03:03.210Z,99694.03
2023-01-09T06:05:30.598Z,99693.50
2023-01-09T06:07:58.047Z,99701.06
2023-01-09T06:10:25.478Z,99690.59
2023-01-09T06:12:54.633Z,99688.59
2023-01-09T06:15:22.016Z,99699.75
2023-01-09T06:17:49.467Z,99691.78
2023-01-09T06:20:16.817Z,99694.63
2023-01-09T06:22:45.400Z,99698.50
2023-01-09T06:25:13.599Z,99691.94
2023-01-09T06:27:41.146Z,99698.47
2023-01-09T06:30:10.558Z,99711.38
2023-01-09T06:32:37.941Z,99687.81
2023-01-09T06:35:05.559Z,99702.28
2023-01-09T06:37:33.432Z,99715.88
2023-01-09T06:40:00.795Z,99701.03
2023-01-09T06:42:28.179Z,99714.41
2023-01-09T06:44:55.507Z,99716.84
2023-01-09T06:47:22.883Z,99701.72
2023-01-09T06:49:50.555Z,99701.84
2023-01-09T06:52:18.027Z,99698.00
2023-01-09T06:54:45.381Z,99702.69
2023-01-09T06:57:14.551Z,99704.31
2023-01-09T06:59:41.931Z,99685.59
2023-01-09T07:02:18.430Z,99687.19
2023-01-09T07:04:45.762Z,99690.31
2023-01-09T07:07:13.687Z,99685.81
2023-01-09T07:09:41.028Z,99684.66
2023-01-09T07:12:08.488Z,99674.31
2023-01-09T07:14:36.333Z,99667.44
2023-01-09T07:17:03.849Z,99664.88
2023-01-09T07:19:31.145Z,99681.91
2023-01-09T07:21:58.557Z,99692.41
2023-01-09T07:24:25.891Z,99688.13
2023-01-09T07:26:53.273Z,99688.59
2023-01-09T07:29:20.622Z,99692.00
2023-01-09T07:31:48.200Z,99693.59
2023-01-09T07:34:15.537Z,99689.28
2023-01-09T07:36:46.457Z,99696.03
2023-01-09T07:39:14.308Z,99679.44
2023-01-09T07:41:41.824Z,99668.00
2023-01-09T07:44:11.365Z,99658.56
2023-01-09T07:46:39.126Z,99657.75
2023-01-09T07:49:06.856Z,99654.25
2023-01-09T07:51:34.650Z,99649.84
2023-01-09T07:54:02.046Z,99636.16
2023-01-09T07:56:29.350Z,99633.91
2023-01-09T07:58:56.710Z,99628.69
2023-01-09T08:01:24.180Z,99633.13
2023-01-09T08:03:51.617Z,99635.03
2023-01-09T08:06:19.061Z,99637.00
2023-01-09T08:08:46.427Z,99636.81
2023-01-09T08:11:13.785Z,99623.50
2023-01-09T08:13:41.256Z,99624.84
2023-01-09T08:16:08.790Z,99634.97
2023-01-09T08:18:36.234Z,99643.47
2023-01-09T08:21:03.629Z,99643.03
2023-01-09T08:23:31.086Z,99646.25
2023-01-09T08:25:58.444Z,99649.25
2023-01-09T08:28:25.824Z,99655.28
2023-01-09T08:30:53.217Z,99656.94
2023-01-09T08:33:20.571Z,99661.63
2023-01-09T08:35:48.141Z,99667.97
2023-01-09T08:38:15.473Z,99661.38
2023-01-09T08:40:42.829Z,99647.47
2023-01-09T08:43:29.063Z,99638.91
2023-01-09T08:46:19.464Z,99635.78
2023-01-09T08:48:48.399Z,99633.47
2023-01-09T08:51:15.802Z,99642.41
2023-01-09T08:53:43.177Z,99655.03
2023-01-09T08:56:10.533Z,99658.91
2023-01-09T08:58:37.910Z,99655.16
2023-01-09T09:01:07.090Z,99654.81
2023-01-09T09:03:34.482Z,99656.88
2023-01-09T09:06:02.193Z,99642.78
2023-01-09T09:08:29.585Z,99648.50
2023-01-09T09:10:57.437Z,99646.69
2023-01-09T09:13:24.743Z,99643.72
2023-01-09T09:15:52.102Z,99643.66
2023-01-09T09:18:19.464Z,99654.91
2023-01-09T09:20:46.801Z,99649.38
2023-01-09T09:23:14.182Z,99642.34
2023-01-09T09:25:41.610Z,99636.94
2023-01-09T09:28:09.539Z,99648.38
2023-01-09T09:30:38.742Z,99651.72
2023-01-09T09:33:08.738Z,99657.78
2023-01-09T09:35:36.739Z,99649.00
2023-01-09T09:38:05.835Z,99658.00
2023-01-09T09:40:53.486Z,99656.41
2023-01-09T09:43:59.637Z,99652.78
2023-01-09T09:46:47.728Z,99651.66
2023-01-09T09:49:23.121Z,99637.38
2023-01-09T09:52:00.520Z,99645.22
2023-01-09T09:54:35.414Z,99636.09
2023-01-09T09:57:05.207Z,99645.59
2023-01-09T09:59:36.906Z,99640.97
2023-01-09T10:02:22.053Z,99642.44
2023-01-09T10:04:55.503Z,99631.59
2023-01-09T10:07:30.969Z,99640.88
2023-01-09T10:10:02.060Z,99639.19
2023-01-09T10:12:31.648Z,99637.13
2023-01-09T10:15:14.021Z,99639.03
2023-01-09T10:18:04.556Z,99631.81
2023-01-09T10:20:49.570Z,99626.75
2023-01-09T10:23:16.930Z,99629.91
2023-01-09T10:26:02.803Z,99623.56
2023-01-09T10:28:54.700Z,99626.63
2023-01-09T10:31:45.923Z,99631.47
2023-01-09T10:34:53.019Z,99620.84
2023-01-09T10:37:36.334Z,99611.59
2023-01-09T10:40:20.889Z,99611.91
2023-01-09T10:43:03.059Z,99608.88
2023-01-09T10:45:33.675Z,99622.69
2023-01-09T10:48:17.698Z,99624.19
2023-01-09T10:50:47.524Z,99632.00
2023-01-09T10:53:23.873Z,99630.03
2023-01-09T10:55:55.960Z,99626.66
2023-01-09T10:58:23.548Z,99621.09
2023-01-09T11:00:51.485Z,99620.38
2023-01-09T11:03:22.355Z,99615.25
2023-01-09T11:05:55.765Z,99621.97
2023-01-09T11:08:30.827Z,99631.03
2023-01-09T11:11:00.557Z,99621.25
2023-01-09T11:13:29.430Z,99622.41
2023-01-09T11:16:22.024Z,99615.56
2023-01-09T11:19:01.140Z,99616.44
2023-01-09T11:21:38.062Z,99620.47
2023-01-09T11:24:26.402Z,99620.75
2023-01-09T11:27:14.889Z,99616.53
2023-01-09T11:29:42.644Z,99623.47
2023-01-09T11:32:36.470Z,99617.81
2023-01-09T11:35:15.488Z,99605.47
2023-01-09T11:37:44.001Z,99598.91
2023-01-09T11:40:20.421Z,99601.97
2023-01-09T11:43:11.693Z,99588.94
2023-01-09T11:45:53.248Z,99581.97
2023-01-09T11:48:38.374Z,99578.78
2023-01-09T11:51:18.000Z,99577.38
2023-01-09T11:54:08.722Z,99564.34
2023-01-09T11:56:39.484Z,99562.78
2023-01-09T11:59:15.777Z,99557.94
2023-01-09T12:02:10.619Z,99547.88
2023-01-09T12:05:10.923Z,99549.34
2023-01-09T12:08:18.049Z,99553.06
2023-01-09T12:10:51.442Z,99550.25
2023-01-09T12:13:37.156Z,99553.50
2023-01-09T12:16:16.043Z,99553.19
2023-01-09T12:18:58.605Z,99547.66
2023-01-09T12:21:29.031Z,99541.75
2023-01-09T12:24:20.849Z,99545.47
2023-01-09T12:27:17.351Z,99540.97
2023-01-09T12:30:34.595Z,99534.28
2023-01-09T12:33:26.904Z,99532.97
2023-01-09T12:36:12.807Z,99527.16
2023-01-09T12:38:49.059Z,99504.47
2023-01-09T12:41:23.095Z,99509.66
2023-01-09T12:44:02.757Z,99503.91
2023-01-09T12:46:45.812Z,99501.06
2023-01-09T12:49:35.005Z,99493.78
2023-01-09T12:52:23.434Z,99497.59
2023-01-09T12:55:14.955Z,99502.56
2023-01-09T12:57:50.866Z,99495.81
2023-01-09T13:00:30.455Z,99492.66
2023-01-09T13:03:12.797Z,99479.31
2023-01-09T13:05:42.803Z,99472.78
2023-01-09T13:08:34.361Z,99477.28
2023-01-09T13:11:20.503Z,99472.22
2023-01-09T13:13:57.147Z,99474.28
2023-01-09T13:16:41.552Z,99467.09
2023-01-09T13:19:23.915Z,99462.81
2023-01-09T13:22:03.707Z,99457.72
2023-01-09T13:24:38.768Z,99451.66
2023-01-09T13:27:10.756Z,99443.41
2023-01-09T13:29:41.046Z,99441.84
2023-01-09T13:32:23.338Z,99438.03
2023-01-09T13:34:54.944Z,99444.53
2023-01-09T13:43:09.862Z,99438.94
2023-01-09T13:45:38.734Z,99433.25
2023-01-09T13:48:14.508Z,99436.13
2023-01-09T13:50:42.306Z,99436.72
2023-01-09T13:53:18.776Z,99435.94
2023-01-09T13:56:12.217Z,99424.91
2023-01-09T13:58:40.534Z,99427.81
2023-01-09T14:01:39.928Z,99428.97
2023-01-09T14:04:14.929Z,99435.16
2023-01-09T14:06:44.985Z,99436.34
2023-01-09T14:09:18.361Z,99441.84
2023-01-09T14:11:47.547Z,99441.78
2023-01-09T14:14:25.779Z,99440.38
2023-01-09T14:16:53.285Z,99435.44
2023-01-09T14:19:28.543Z,99446.06
2023-01-09T14:21:57.804Z,99455.31
2023-01-09T14:24:52.460Z,99454.81
2023-01-09T14:27:57.003Z,99460.63
2023-01-09T14:30:27.177Z,99450.41
2023-01-09T14:33:19.403Z,99453.44
2023-01-09T14:36:21.667Z,99452.03
2023-01-09T14:38:53.303Z,99457.34
2023-01-09T14:41:45.772Z,99444.13
2023-01-09T14:44:19.612Z,99454.94
2023-01-09T14:46:49.960Z,99449.66
2023-01-09T14:49:41.828Z,99433.53
2023-01-09T14:52:37.725Z,99443.56
2023-01-09T14:55:19.663Z,99436.25
2023-01-09T14:57:52.126Z,99441.22
2023-01-09T15:00:19.703Z,99448.19
2023-01-09T15:02:48.503Z,99447.84
2023-01-09T15:05:22.590Z,99444.19
2023-01-09T15:07:58.277Z,99454.44
2023-01-09T15:10:30.697Z,99449.84
2023-01-09T15:13:01.820Z,99452.38
2023-01-09T15:15:29.312Z,99445.56
2023-01-09T15:18:05.594Z,99440.72
2023-01-09T15:20:34.303Z,99448.44
2023-01-09T15:23:04.273Z,99450.38
2023-01-09T15:25:39.385Z,99444.16
2023-01-09T15:28:25.318Z,99453.09
2023-01-09T15:31:16.460Z,99448.91
2023-01-09T15:33:46.211Z,99438.06
2023-01-09T15:36:21.795Z,99445.66
2023-01-09T15:38:50.354Z,99454.81
2023-01-09T15:41:42.423Z,99458.19
2023-01-09T15:44:22.938Z,99451.97
2023-01-09T15:46:51.934Z,99448.59
2023-01-09T15:49:20.243Z,99456.38
2023-01-09T15:51:48.948Z,99451.19
2023-01-09T15:54:21.142Z,99449.72
2023-01-09T15:56:48.548Z,99461.59
2023-01-09T15:59:27.716Z,99469.63
2023-01-09T16:02:20.266Z,99491.19
2023-01-09T16:04:48.904Z,99488.72
2023-01-09T16:07:19.828Z,99488.94
2023-01-09T16:09:52.582Z,99488.59
2023-01-09T16:12:25.807Z,99501.56
2023-01-09T16:14:56.353Z,99507.91
2023-01-09T16:17:26.827Z,99503.41
2023-01-09T16:20:11.747Z,99500.56
2023-01-09T16:22:54.095Z,99515.69
2023-01-09T16:25:31.508Z,99524.50
2023-01-09T16:28:26.991Z,99531.34
2023-01-09T16:31:00.614Z,99540.16
2023-01-09T16:33:31.088Z,99542.69
2023-01-09T16:35:58.973Z,99541.16
2023-01-09T16:38:26.821Z,99547.25
2023-01-09T16:41:20.005Z,99547.94
2023-01-09T16:43:47.999Z,99561.16
2023-01-09T16:46:16.962Z,99575.53
2023-01-09T16:48:45.300Z,99571.34
2023-01-09T16:51:18.433Z,99569.84
2023-01-09T16:53:45.772Z,99572.19
2023-01-09T16:56:23.376Z,99571.25
2023-01-09T16:58:52.703Z,99580.50
2023-01-09T17:01:20.948Z,99587.44
2023-01-09T17:03:49.061Z,99596.72
2023-01-09T17:06:29.073Z,99599.41
2023-01-09T17:08:57.054Z,99597.25
2023-01-09T17:11:31.995Z,99609.44
2023-01-09T17:14:02.992Z,99616.28
2023-01-09T17:16:30.638Z,99621.47
2023-01-09T17:18:58.059Z,99622.09
2023-01-09T17:21:29.131Z,99625.81
2023-01-09T17:24:18.652Z,99626.94
2023-01-09T17:27:09.380Z,99636.66
2023-01-09T17:29:37.217Z,99641.06
2023-01-09T17:32:05.063Z,99629.88
2023-01-09T17:34:33.754Z,99637.22
2023-01-09T17:37:03.604Z,99634.41
2023-01-09T17:39:31.746Z,99642.25
2023-01-09T17:42:01.834Z,99637.13
2023-01-09T17:44:29.633Z,99649.16
2023-01-09T17:46:57.043Z,99650.94
2023-01-09T17:49:24.643Z,99655.69
2023-01-09T17:51:52.115Z,99665.00
2023-01-09T17:54:21.219Z,99667.22
2023-01-09T17:56:51.050Z,99669.00
2023-01-09T17:59:18.777Z,99674.44
2023-01-09T18:01:47.139Z,99682.28
2023-01-09T18:04:14.552Z,99678.19
2023-01-09T18:06:41.839Z,99679.03
2023-01-09T18:09:15.310Z,99691.88
2023-01-09T18:11:44.063Z,99686.91
2023-01-09T18:14:13.660Z,99703.00
2023-01-09T18:16:41.411Z,99712.94
2023-01-09T18:19:09.399Z,99703.00
2023-01-09T18:21:36.793Z,99712.03
2023-01-09T18:24:04.437Z,99707.72
2023-01-09T18:26:31.802Z,99716.13
2023-01-09T18:29:00.484Z,99728.59
2023-01-09T18:31:28.516Z,99726.81
2023-01-09T18:33:57.912Z,99732.66
2023-01-09T18:36:30.856Z,99749.19
2023-01-09T18:39:00.212Z,99751.31
2023-01-09T18:41:28.832Z,99755.75
2023-01-09T18:43:59.319Z,99754.19
2023-01-09T18:46:30.699Z,99754.19
2023-01-09T18:49:00.449Z,99761.53
2023-01-09T18:51:28.983Z,99766.91
2023-01-09T18:53:56.708Z,99777.56
2023-01-09T18:56:24.872Z,99787.00
2023-01-09T18:58:57.294Z,99785.09
2023-01-09T19:01:28.661Z,99789.09
2023-01-09T19:03:57.757Z,99797.19
2023-01-09T19:06:26.198Z,99804.38
2023-01-09T19:08:54.986Z,99807.41
2023-01-09T19:11:22.400Z,99817.72
2023-01-09T19:13:50.649Z,99816.16
2023-01-09T19:16:18.580Z,99815.81
2023-01-09T19:18:46.081Z,99819.31
2023-01-09T19:21:14.946Z,99810.09
2023-01-09T19:23:44.136Z,99824.59
2023-01-09T19:26:31.143Z,99819.66
2023-01-09T19:28:59.391Z,99829.69
2023-01-09T19:31:29.075Z,99825.25
2023-01-09T19:33:57.539Z,99814.56
2023-01-09T19:36:25.355Z,99822.38
2023-01-09T19:39:00.396Z,99830.50
2023-01-09T19:41:28.934Z,99828.41
2023-01-09T19:43:56.576Z,99833.81
2023-01-09T19:46:25.514Z,99829.69
2023-01-09T19:48:53.486Z,99839.41
2023-01-09T19:51:21.996Z,99835.41
2023-01-09T19:56:28.972Z,99843.84
2023-01-09T19:58:59.061Z,99847.69
2023-01-09T20:01:34.928Z,99848.16
2023-01-09T20:04:07.739Z,99850.53
2023-01-09T20:06:35.381Z,99856.25
2023-01-09T20:09:04.971Z,99858.97
2023-01-09T20:11:32.832Z,99856.59
2023-01-09T20:14:01.235Z,99855.00
2023-01-09T20:16:30.608Z,99869.00
2023-01-09T20:19:00.280Z,99868.19
2023-01-09T20:21:28.683Z,99872.31
2023-01-09T20:23:59.366Z,99868.69
2023-01-09T20:26:28.565Z,99873.28
2023-01-09T20:28:56.898Z,99879.19
2023-01-09T20:31:28.290Z,99878.69
2023-01-09T20:33:55.800Z,99884.44
2023-01-09T20:36:27.579Z,99887.94
2023-01-09T20:38:59.451Z,99889.69
2023-01-09T20:41:29.366Z,99896.22
2023-01-09T20:44:00.269Z,99894.63
2023-01-09T20:46:31.020Z,99900.50
2023-01-09T20:48:59.964Z,99911.16
2023-01-09T20:51:27.601Z,99905.75
2023-01-09T20:53:58.522Z,99912.13
2023-01-09T20:56:27.813Z,99914.19
2023-01-09T20:58:56.285Z,99919.28
2023-01-09T21:01:24.910Z,99935.63
2023-01-09T21:03:54.179Z,99940.09
2023-01-09T21:06:24.408Z,99943.91
2023-01-09T21:08:53.264Z,99949.16
2023-01-09T21:11:22.207Z,99954.06
2023-01-09T21:13:50.299Z,99953.13
2023-01-09T21:16:24.130Z,99959.34
2023-01-09T21:18:52.463Z,99961.31
2023-01-09T21:21:23.362Z,99974.81
2023-01-09T21:23:56.894Z,99962.09
2023-01-09T21:26:28.275Z,99970.63
2023-01-09T21:28:57.839Z,99982.75
2023-01-09T21:31:34.433Z,99985.97
2023-01-09T21:34:05.002Z,99982.22
2023-01-09T21:36:32.813Z,99985.25
2023-01-09T21:39:00.473Z,99991.88
2023-01-09T21:41:46.332Z,99988.06
2023-01-09T21:44:32.225Z,100001.84
2023-01-09T21:47:01.235Z,100011.28
2023-01-09T21:49:31.394Z,100016.66
2023-01-09T21:51:58.809Z,100010.97
2023-01-09T21:54:26.558Z,100017.38
2023-01-09T21:56:54.764Z,100020.84
2023-01-09T21:59:22.942Z,100020.06
2023-01-09T22:01:51.084Z,100031.28
2023-01-09T22:04:21.127Z,100028.16
2023-01-09T22:06:49.337Z,100037.38
2023-01-09T22:09:16.761Z,100044.84
2023-01-09T22:11:44.626Z,100053.56
2023-01-09T22:14:17.178Z,100050.34
2023-01-09T22:16:45.580Z,100057.75
2023-01-09T22:19:14.349Z,100065.06
2023-01-09T22:21:41.705Z,100066.66
2023-01-09T22:24:12.777Z,100082.06
2023-01-09T22:26:40.234Z,100083.97
2023-01-09T22:29:07.688Z,100090.38
2023-01-09T22:31:35.394Z,100086.19
2023-01-09T22:34:02.833Z,100087.38
2023-01-09T22:36:31.278Z,100090.59
2023-01-09T22:38:59.944Z,100095.38
2023-01-09T22:41:29.714Z,100100.97
2023-01-09T22:43:57.662Z,100092.88
2023-01-09T22:46:25.758Z,100098.78
2023-01-09T22:48:53.207Z,100095.88
2023-01-09T22:51:21.734Z,100097.47
2023-01-09T22:53:49.876Z,100101.19
2023-01-09T22:56:19.649Z,100100.41
2023-01-09T22:58:54.151Z,100102.09
2023-01-09T23:01:22.599Z,100112.91
2023-01-09T23:03:50.206Z,100113.50
2023-01-09T23:06:20.915Z,100120.78
2023-01-09T23:08:50.829Z,100117.78
2023-01-09T23:11:45.551Z,100109.69
2023-01-09T23:14:13.273Z,100101.50
2023-01-09T23:16:41.371Z,100110.22
2023-01-09T23:19:09.950Z,100104.50
2023-01-09T23:21:37.445Z,100115.38
2023-01-09T23:24:07.085Z,100119.28
2023-01-09T23:26:35.720Z,100114.78
2023-01-09T23:29:06.992Z,100121.38
2023-01-09T23:31:35.590Z,100128.78
2023-01-09T23:34:04.686Z,100123.78
2023-01-09T23:36:32.145Z,100127.47
2023-01-09T23:38:59.738Z,100120.19
2023-01-09T23:41:47.137Z,100121.19
2023-01-09T23:44:14.538Z,100124.97
2023-01-09T23:46:41.938Z,100127.47
2023-01-09T23:49:09.913Z,100116.69
2023-01-09T23:51:37.289Z,100124.50
2023-01-09T23:54:04.900Z,100128.28
2023-01-09T23:56:33.992Z,100134.38
2023-01-09T23:59:02.255Z,100127.16
